Lansdowne House, Canada
Current Conditions -  °F | °C
As of 11:16 AM on Friday 31 Oct 2014 (Local Time) from CYLH Reporting Station
Overcast Overcast  
Wind Chill: 13°   Ceiling: 1500
Heat Index: 23°   Visibility: 9mi
Dew Point: 19°   Wind: 9mph
Humidity: 86%   Direction: 310°NW
Pressure: 30.45"   Gusts: NA
Location:  52.21°N, 87.89°W
Report Text: CYLH 311516Z AUTO 31008KT 270V330 9SM OVC015 M05/M07 A3045 RMK SLP330
Loading
Personal Weather Stations






























Interactive Weather Map New forecast layout! Learn more

10-Day Weather Forecast

Advertisements
Track Severe Weather on mobile